Time;durP1;ratioP1;P1;durP2;ratioP2;P2;SDS_P1;SDS_P2;PMS_P1;PMS_P2;Temp;Humidity;BMP_temperature;BMP_pressure;BME280_temperature;BME280_humidity;BME280_pressure;Samples;Min_cycle;Max_cycle;Signal;HPM_P1;HPM_P2
2022/09/06 00:00:25;;;;;;;6.70;5.47;;;16.60;99.90;;;;;;5031620;28;20626;-71
2022/09/06 00:02:51;;;;;;;7.93;6.00;;;16.60;99.90;;;;;;5031747;28;20198;-71
2022/09/06 00:05:16;;;;;;;11.33;6.00;;;16.60;99.90;;;;;;5031452;28;20189;-71
2022/09/06 00:07:42;;;;;;;7.40;6.60;;;16.60;99.90;;;;;;5030950;28;20717;-71
2022/09/06 00:10:08;;;;;;;6.47;5.37;;;16.50;99.90;;;;;;5031595;28;20182;-71
2022/09/06 00:12:35;;;;;;;7.10;6.50;;;16.50;99.90;;;;;;5031450;28;20571;-71
2022/09/06 00:15:01;;;;;;;6.10;5.50;;;16.40;99.90;;;;;;5031566;28;20412;-71
2022/09/06 00:17:26;;;;;;;8.00;6.30;;;16.40;99.90;;;;;;5031515;28;20435;-71
2022/09/06 00:19:52;;;;;;;7.03;6.43;;;16.40;99.90;;;;;;5031682;28;20968;-71
2022/09/06 00:22:18;;;;;;;9.67;5.77;;;16.40;99.90;;;;;;5043582;28;20200;-71
2022/09/06 00:24:43;;;;;;;8.20;6.53;;;16.40;99.90;;;;;;5032463;28;20277;-72
2022/09/06 00:27:09;;;;;;;7.60;6.23;;;16.30;99.90;;;;;;5031501;28;20696;-72
2022/09/06 00:29:35;;;;;;;6.30;5.53;;;16.40;99.90;;;;;;5031521;28;20188;-71
2022/09/06 00:32:00;;;;;;;5.43;4.83;;;16.30;99.90;;;;;;5031469;28;20313;-73
2022/09/06 00:34:27;;;;;;;5.93;5.43;;;16.30;99.90;;;;;;5031264;28;20682;-71
2022/09/06 00:36:52;;;;;;;5.50;5.00;;;16.30;99.90;;;;;;5031457;28;20197;-71
2022/09/06 00:39:18;;;;;;;6.40;5.80;;;16.30;99.90;;;;;;5031216;28;20460;-71
2022/09/06 00:41:44;;;;;;;5.80;5.30;;;16.20;99.90;;;;;;5031556;28;20224;-71
2022/09/06 00:44:10;;;;;;;6.40;5.90;;;16.10;99.90;;;;;;5030883;28;20178;-71
2022/09/06 00:46:40;;;;;;;6.50;4.87;;;16.10;99.90;;;;;;5031522;28;20851;-70
2022/09/06 00:49:14;;;;;;;8.27;4.90;;;16.10;99.90;;;;;;5031063;28;20185;-73
2022/09/06 00:51:40;;;;;;;7.33;5.63;;;16.10;99.90;;;;;;5031471;28;20441;-71
2022/09/06 00:54:07;;;;;;;11.50;6.60;;;16.10;99.90;;;;;;5030959;28;20421;-71
2022/09/06 00:56:38;;;;;;;6.40;5.73;;;16.10;99.90;;;;;;5031399;28;20182;-72
2022/09/06 00:59:03;;;;;;;6.40;5.90;;;16.10;99.90;;;;;;5030978;28;20487;-71
2022/09/06 02:33:11;;;;;;;7.30;5.47;;;16.90;99.90;;;;;;4579152;26;20879;-72
2022/09/06 02:35:46;;;;;;;7.23;5.27;;;17.00;99.90;;;;;;4939041;28;20436;-72
2022/09/06 02:38:12;;;;;;;6.20;5.20;;;17.00;99.90;;;;;;4936184;29;20929;-72
2022/09/06 02:40:38;;;;;;;5.53;5.03;;;17.10;99.90;;;;;;4936678;29;20559;-72
2022/09/06 02:43:03;;;;;;;6.90;5.20;;;17.20;99.90;;;;;;4955121;28;20192;-72
2022/09/06 02:45:29;;;;;;;5.83;5.20;;;17.20;99.90;;;;;;4962126;28;20200;-72
2022/09/06 02:47:54;;;;;;;10.47;4.70;;;17.30;99.90;;;;;;4967780;28;20677;-71
2022/09/06 02:50:20;;;;;;;4.93;4.63;;;17.30;99.90;;;;;;4955163;28;20185;-72
2022/09/06 02:52:45;;;;;;;8.80;5.90;;;17.40;99.90;;;;;;4954817;28;20240;-73
2022/09/06 02:55:11;;;;;;;7.80;5.83;;;17.40;99.90;;;;;;4954862;28;20602;-72
2022/09/06 02:57:37;;;;;;;7.73;5.67;;;17.40;99.90;;;;;;4955357;28;20196;-72
2022/09/06 03:00:03;;;;;;;7.93;7.03;;;17.40;99.90;;;;;;4953454;28;20216;-72
2022/09/06 03:02:29;;;;;;;6.97;6.27;;;17.40;99.90;;;;;;4955471;28;20297;-73
2022/09/06 03:04:54;;;;;;;7.37;6.67;;;17.30;99.90;;;;;;4955220;28;20520;-72
2022/09/06 03:07:20;;;;;;;13.87;7.90;;;17.30;99.90;;;;;;4955078;28;20200;-73
2022/09/06 03:09:45;;;;;;;11.03;6.27;;;17.20;99.90;;;;;;4955014;28;20192;-71
2022/09/06 03:12:11;;;;;;;8.00;7.20;;;17.20;99.90;;;;;;4954594;28;20213;-71
2022/09/06 03:14:36;;;;;;;8.17;7.37;;;17.20;99.90;;;;;;4954553;28;20255;-72
2022/09/06 03:17:03;;;;;;;13.23;7.87;;;17.20;99.90;;;;;;4954583;28;20189;-71
2022/09/06 03:19:28;;;;;;;8.03;7.23;;;17.10;99.90;;;;;;4954533;28;20628;-71
2022/09/06 03:21:54;;;;;;;9.53;8.23;;;17.10;99.90;;;;;;4967334;28;20451;-71
2022/09/06 03:24:20;;;;;;;8.83;7.63;;;17.10;99.90;;;;;;4960170;28;20251;-72
2022/09/06 03:26:45;;;;;;;14.27;8.67;;;17.10;99.90;;;;;;4973827;28;20583;-71
2022/09/06 03:29:11;;;;;;;7.40;6.70;;;17.20;99.90;;;;;;4973546;28;20432;-71
2022/09/06 03:31:36;;;;;;;8.13;7.30;;;17.10;99.90;;;;;;4973555;28;20700;-71
2022/09/06 03:34:01;;;;;;;7.87;7.07;;;17.10;99.90;;;;;;4973428;28;20238;-71
2022/09/06 03:36:28;;;;;;;7.53;6.73;;;17.00;99.90;;;;;;4973651;28;20234;-72
2022/09/06 03:38:54;;;;;;;9.20;7.27;;;17.00;99.90;;;;;;4973499;28;20180;-71
2022/09/06 03:41:19;;;;;;;9.30;7.43;;;16.90;99.90;;;;;;4973307;28;21185;-71
2022/09/06 03:43:45;;;;;;;14.10;8.60;;;16.90;99.90;;;;;;4973439;28;20179;-73
2022/09/06 03:46:10;;;;;;;8.33;6.27;;;16.80;99.90;;;;;;4966358;28;20552;-70
2022/09/06 03:48:36;;;;;;;7.87;7.03;;;16.80;99.90;;;;;;4954332;28;20189;-70
2022/09/06 03:51:01;;;;;;;7.43;6.73;;;16.70;99.90;;;;;;4953791;28;20288;-71
2022/09/06 03:53:28;;;;;;;9.57;8.47;;;16.70;99.90;;;;;;4966358;28;20184;-70
2022/09/06 03:55:56;;;;;;;9.43;7.50;;;16.60;99.90;;;;;;4972733;28;20211;-72
2022/09/06 03:58:23;;;;;;;8.93;8.03;;;16.60;99.90;;;;;;4972686;28;20846;-72
2022/09/06 04:00:49;;;;;;;8.10;7.30;;;16.60;99.90;;;;;;4973150;28;20462;-71
2022/09/06 04:03:14;;;;;;;8.47;7.67;;;16.60;99.90;;;;;;4973085;28;20431;-70
2022/09/06 04:05:44;;;;;;;14.17;7.87;;;16.60;99.90;;;;;;4973093;28;20208;-70
2022/09/06 04:08:09;;;;;;;9.50;8.37;;;16.60;99.90;;;;;;4972882;28;20192;-71
2022/09/06 04:10:35;;;;;;;7.80;7.10;;;16.60;99.90;;;;;;4972924;28;20478;-69
2022/09/06 04:13:00;;;;;;;8.83;7.20;;;16.50;99.90;;;;;;4972827;28;20560;-71
2022/09/06 04:15:26;;;;;;;7.57;6.83;;;16.50;99.90;;;;;;4972825;28;20191;-72
2022/09/06 04:17:51;;;;;;;9.27;7.90;;;16.50;99.90;;;;;;4972797;28;20183;-72
2022/09/06 04:20:17;;;;;;;9.90;8.90;;;16.50;99.90;;;;;;4972667;28;20299;-74
2022/09/06 04:22:43;;;;;;;13.77;9.73;;;16.50;99.90;;;;;;4965130;28;20231;-72
2022/09/06 04:25:09;;;;;;;14.00;8.00;;;16.60;99.90;;;;;;4953247;28;20177;-72
2022/09/06 04:27:34;;;;;;;9.50;8.53;;;16.60;99.90;;;;;;4953554;28;20675;-72
2022/09/06 04:30:00;;;;;;;16.17;7.70;;;16.60;99.90;;;;;;4953372;28;20428;-73
2022/09/06 04:32:26;;;;;;;15.10;8.70;;;16.60;99.90;;;;;;4953604;28;20220;-73
2022/09/06 04:34:51;;;;;;;9.70;8.53;;;16.60;99.90;;;;;;4953368;28;20243;-71
2022/09/06 04:37:18;;;;;;;9.63;8.40;;;16.60;99.90;;;;;;4953464;28;20222;-72
2022/09/06 04:39:45;;;;;;;8.50;7.60;;;16.60;99.90;;;;;;4952138;28;20275;-71
2022/09/06 04:42:11;;;;;;;10.00;8.10;;;16.60;99.90;;;;;;4953149;28;20452;-73
2022/09/06 04:44:36;;;;;;;11.17;10.07;;;16.70;99.90;;;;;;4953169;28;20424;-71
2022/09/06 04:47:05;;;;;;;11.93;8.80;;;16.70;99.90;;;;;;4953451;28;20275;-72
2022/09/06 04:49:30;;;;;;;9.90;8.40;;;16.80;99.90;;;;;;4953386;28;20200;-70
2022/09/06 04:51:55;;;;;;;13.30;8.87;;;16.80;99.90;;;;;;4953246;28;20817;-72
2022/09/06 04:54:21;;;;;;;9.97;8.90;;;16.80;99.90;;;;;;4953036;28;20224;-73
2022/09/06 04:56:46;;;;;;;10.40;9.40;;;16.80;99.90;;;;;;4953468;28;20846;-73
2022/09/06 04:59:12;;;;;;;9.73;8.83;;;16.80;99.90;;;;;;4959436;28;20208;-74
2022/09/06 05:01:37;;;;;;;10.27;8.17;;;16.80;99.90;;;;;;4972540;28;20207;-74
2022/09/06 05:04:03;;;;;;;9.30;8.50;;;16.80;99.90;;;;;;4972049;28;20219;-73
2022/09/06 05:06:28;;;;;;;11.07;8.80;;;16.80;99.90;;;;;;4972451;28;20561;-73
2022/09/06 05:08:54;;;;;;;10.20;9.40;;;16.80;99.90;;;;;;4974747;28;20184;-74
2022/09/06 05:11:19;;;;;;;15.10;9.00;;;16.90;99.90;;;;;;4976072;28;20693;-73
2022/09/06 05:13:46;;;;;;;10.87;7.80;;;17.00;99.90;;;;;;4976013;28;20266;-72
2022/09/06 05:16:12;;;;;;;8.90;8.10;;;17.00;99.90;;;;;;4976108;28;20252;-74
2022/09/06 05:18:37;;;;;;;10.10;8.33;;;17.00;99.90;;;;;;4976151;28;20439;-73
2022/09/06 05:21:03;;;;;;;9.77;8.70;;;17.00;99.90;;;;;;4975674;28;20242;-74
2022/09/06 05:23:29;;;;;;;12.07;9.20;;;17.10;99.90;;;;;;4973241;28;20192;-73
2022/09/06 05:25:54;;;;;;;10.83;9.77;;;17.10;99.90;;;;;;4977184;28;20430;-71
2022/09/06 05:28:20;;;;;;;12.33;11.00;;;17.10;99.90;;;;;;4971715;28;20188;-71
2022/09/06 05:30:46;;;;;;;12.30;11.13;;;17.20;99.90;;;;;;4978101;28;20561;-72
2022/09/06 05:33:18;;;;;;;12.63;11.33;;;17.20;99.90;;;;;;4955037;28;20212;-71
2022/09/06 05:35:43;;;;;;;12.17;10.40;;;17.20;99.90;;;;;;4955555;28;20670;-72
2022/09/06 05:38:09;;;;;;;16.20;9.20;;;17.20;99.90;;;;;;4955388;28;20432;-71
2022/09/06 05:40:34;;;;;;;11.60;10.50;;;17.30;99.90;;;;;;4955375;28;20643;-69
2022/09/06 05:43:00;;;;;;;12.07;10.87;;;17.30;99.90;;;;;;4955271;28;20188;-71
2022/09/06 05:45:25;;;;;;;15.63;10.40;;;17.30;99.90;;;;;;4956027;28;20184;-71
2022/09/06 05:47:51;;;;;;;10.47;9.33;;;17.30;99.90;;;;;;4956481;28;20212;-71
2022/09/06 05:50:16;;;;;;;10.13;8.90;;;17.30;99.90;;;;;;4956212;28;20228;-70
2022/09/06 05:52:42;;;;;;;11.73;9.97;;;17.40;99.90;;;;;;4956291;28;20623;-71
2022/09/06 05:55:08;;;;;;;22.37;19.97;;;17.40;99.90;;;;;;4955897;28;20205;-71
2022/09/06 05:57:34;;;;;;;12.07;10.90;;;17.50;99.90;;;;;;4956182;28;20193;-71
2022/09/06 05:59:59;;;;;;;9.30;8.23;;;17.50;99.90;;;;;;4955903;28;20618;-70
2022/09/06 06:02:25;;;;;;;9.40;8.23;;;17.60;99.90;;;;;;4955940;28;20232;-70
2022/09/06 06:04:53;;;;;;;13.10;8.53;;;17.60;99.90;;;;;;4955841;28;20220;-71
2022/09/06 06:07:19;;;;;;;9.23;8.43;;;17.60;99.90;;;;;;4955890;28;20196;-70
2022/09/06 06:09:45;;;;;;;10.20;9.23;;;17.70;99.90;;;;;;4955751;28;20428;-70
2022/09/06 06:12:10;;;;;;;9.27;8.20;;;17.70;99.90;;;;;;4955787;28;20611;-71
2022/09/06 06:14:36;;;;;;;8.47;7.57;;;17.80;99.90;;;;;;4955719;28;20197;-70
2022/09/06 06:17:01;;;;;;;9.10;8.20;;;17.80;99.90;;;;;;4955678;28;20560;-70
2022/09/06 06:19:27;;;;;;;8.53;7.60;;;17.90;99.90;;;;;;4954685;28;20299;-72
2022/09/06 06:21:54;;;;;;;7.40;6.60;;;17.90;99.90;;;;;;4968739;28;20212;-70
2022/09/06 06:24:20;;;;;;;7.93;7.00;;;18.00;99.90;;;;;;4955404;28;20566;-71
2022/09/06 06:26:45;;;;;;;7.47;6.80;;;18.10;99.90;;;;;;4958781;28;20514;-71
2022/09/06 06:29:11;;;;;;;12.60;7.87;;;18.20;99.90;;;;;;4974710;28;20258;-70
2022/09/06 06:31:37;;;;;;;9.43;7.60;;;18.30;99.90;;;;;;4974673;28;20708;-71
2022/09/06 06:34:03;;;;;;;8.60;6.97;;;18.50;99.90;;;;;;4973823;28;20188;-72
2022/09/06 06:36:32;;;;;;;7.80;7.07;;;18.60;99.90;;;;;;4964457;28;20793;-71
2022/09/06 06:38:58;;;;;;;6.53;6.03;;;18.70;99.90;;;;;;4974533;28;20427;-72
2022/09/06 06:41:26;;;;;;;12.20;7.47;;;19.00;99.90;;;;;;4974540;28;20462;-71
2022/09/06 06:43:56;;;;;;;6.63;5.93;;;19.10;99.90;;;;;;4974538;28;20477;-71
2022/09/06 06:46:24;;;;;;;7.00;6.30;;;19.40;99.90;;;;;;4974498;28;20419;-71
2022/09/06 06:48:50;;;;;;;8.90;5.60;;;19.60;99.90;;;;;;4974537;28;20482;-71
2022/09/06 06:51:18;;;;;;;6.97;5.77;;;19.90;99.90;;;;;;4974353;28;20455;-71
2022/09/06 06:53:46;;;;;;;7.03;6.40;;;20.00;99.90;;;;;;4974576;28;20605;-71
2022/09/06 06:56:35;;;;;;;5.10;4.70;;;20.30;99.90;;;;;;4974252;28;20442;-72
2022/09/06 06:59:04;;;;;;;5.60;5.10;;;21.30;99.90;;;;;;4955148;28;20447;-71
2022/09/06 07:01:30;;;;;;;11.33;5.40;;;22.30;99.90;;;;;;4955096;28;20983;-71
2022/09/06 07:03:56;;;;;;;12.20;4.83;;;23.10;99.90;;;;;;4954699;28;20428;-71
2022/09/06 07:06:23;;;;;;;4.40;4.00;;;23.60;99.90;;;;;;4954778;28;20800;-72
2022/09/06 07:08:48;;;;;;;7.87;4.53;;;23.50;99.90;;;;;;4954855;28;20517;-72
2022/09/06 07:11:16;;;;;;;4.20;3.80;;;23.50;99.90;;;;;;4954619;28;20481;-71
2022/09/06 07:13:41;;;;;;;4.60;4.20;;;23.70;99.90;;;;;;4954925;28;20184;-71
2022/09/06 07:16:13;;;;;;;8.00;4.93;;;23.40;99.90;;;;;;4954374;28;20436;-70
2022/09/06 07:18:41;;;;;;;8.00;5.20;;;23.00;99.90;;;;;;4954421;28;20189;-70
2022/09/06 07:21:25;;;;;;;8.00;4.50;;;23.20;99.90;;;;;;4966247;28;20840;-71
2022/09/06 07:23:52;;;;;;;8.90;4.50;;;23.70;99.90;;;;;;4954604;28;20428;-71
2022/09/06 07:26:20;;;;;;;4.43;4.03;;;24.00;99.90;;;;;;4954534;28;20456;-71
2022/09/06 07:28:46;;;;;;;4.70;4.30;;;24.40;99.90;;;;;;4954565;28;20428;-71
2022/09/06 07:31:12;;;;;;;5.40;4.33;;;24.80;99.90;;;;;;4954156;28;20460;-71
2022/09/06 07:33:38;;;;;;;6.30;3.93;;;25.00;99.90;;;;;;4954544;28;20432;-71
2022/09/06 07:36:06;;;;;;;6.83;3.73;;;24.90;99.90;;;;;;4953230;28;20451;-71
2022/09/06 07:38:32;;;;;;;4.83;4.20;;;24.90;99.90;;;;;;4954255;28;20431;-71
2022/09/06 07:41:00;;;;;;;5.33;4.03;;;25.20;99.90;;;;;;4954449;28;20839;-71
2022/09/06 07:43:27;;;;;;;5.17;4.10;;;25.40;99.90;;;;;;4954332;28;20428;-71
2022/09/06 07:46:06;;;;;;;3.47;3.17;;;25.60;99.90;;;;;;4954501;28;20420;-70
2022/09/06 07:48:34;;;;;;;4.30;3.90;;;26.00;99.90;;;;;;4954142;28;20502;-73
2022/09/06 07:51:11;;;;;;;4.20;3.80;;;26.60;99.90;;;;;;4954312;28;20444;-71
2022/09/06 07:53:39;;;;;;;6.50;3.77;;;27.00;99.90;;;;;;4954169;28;20510;-72
2022/09/06 07:56:07;;;;;;;3.70;3.40;;;27.30;99.90;;;;;;4954062;28;20460;-71
2022/09/06 07:58:33;;;;;;;3.97;3.37;;;27.80;99.90;;;;;;4953844;28;20424;-72
2022/09/06 08:01:29;;;;;;;5.80;3.43;;;28.10;99.90;;;;;;4953967;28;20567;-71
2022/09/06 08:04:13;;;;;;;3.50;3.00;;;28.60;99.90;;;;;;4972935;28;20924;-72
2022/09/06 08:06:41;;;;;;;3.23;2.97;;;28.60;99.90;;;;;;4973313;28;20419;-71
2022/09/06 08:09:08;;;;;;;4.13;3.47;;;28.50;99.90;;;;;;4972992;28;20482;-71
2022/09/06 08:11:35;;;;;;;4.00;3.70;;;28.60;99.90;;;;;;4973045;28;20431;-71
2022/09/06 08:14:03;;;;;;;3.00;2.80;;;28.80;99.90;;;;;;4972877;28;20427;-71
2022/09/06 08:16:30;;;;;;;4.40;3.60;;;29.40;99.90;;;;;;4973066;28;20419;-72
2022/09/06 08:18:58;;;;;;;5.20;3.93;;;29.50;99.90;;;;;;4973005;28;20430;-71
2022/09/06 08:21:25;;;;;;;3.80;3.20;;;29.50;99.90;;;;;;4970569;28;20432;-71
2022/09/06 08:24:03;;;;;;;8.37;3.90;;;29.60;99.90;;;;;;4953707;28;20466;-72
2022/09/06 08:26:30;;;;;;;3.70;3.10;;;29.20;99.90;;;;;;4953651;28;20849;-72
2022/09/06 08:28:59;;;;;;;7.37;3.70;;;29.20;99.90;;;;;;4953599;28;20454;-72
2022/09/06 08:31:25;;;;;;;3.77;3.47;;;29.40;99.90;;;;;;4953241;28;20455;-71
2022/09/06 08:33:52;;;;;;;2.80;2.60;;;29.60;99.90;;;;;;4953627;28;20428;-71
2022/09/06 08:36:17;;;;;;;3.80;3.10;;;29.60;99.90;;;;;;4953224;28;20428;-71
2022/09/06 08:38:44;;;;;;;4.40;3.20;;;29.70;99.90;;;;;;4953619;28;20424;-72
2022/09/06 08:41:15;;;;;;;3.23;2.90;;;29.90;99.90;;;;;;4953219;28;20204;-71
2022/09/06 08:43:53;;;;;;;5.70;3.17;;;29.80;99.90;;;;;;4953410;28;20841;-71
2022/09/06 08:46:40;;;;;;;4.60;2.80;;;29.80;99.90;;;;;;4953335;28;20420;-73
2022/09/06 08:49:06;;;;;;;4.47;3.40;;;30.10;99.90;;;;;;4953394;28;20781;-71
2022/09/06 08:51:50;;;;;;;4.43;3.33;;;30.40;99.90;;;;;;4953367;28;20447;-71
2022/09/06 08:54:36;;;;;;;4.83;3.47;;;30.80;99.90;;;;;;4953180;28;20181;-72
2022/09/06 08:57:40;;;;;;;7.50;3.60;;;30.80;99.90;;;;;;4953320;28;20431;-71
2022/09/06 09:00:12;;;;;;;4.03;3.17;;;31.00;99.90;;;;;;4952812;28;20462;-72
2022/09/06 09:02:52;;;;;;;3.90;3.50;;;30.70;99.90;;;;;;4953305;28;20437;-72
2022/09/06 09:05:26;;;;;;;3.27;2.97;;;31.00;99.90;;;;;;4953073;28;20416;-72
2022/09/06 09:08:28;;;;;;;5.33;3.37;;;31.30;99.90;;;;;;4953352;28;20416;-72
2022/09/06 09:10:56;;;;;;;5.00;3.10;;;31.40;99.90;;;;;;4953270;28;20467;-72
2022/09/06 09:13:59;;;;;;;3.40;3.10;;;31.70;99.90;;;;;;4953019;28;20432;-72
2022/09/06 09:16:25;;;;;;;7.97;3.80;;;31.60;99.90;;;;;;4952056;28;20447;-72
2022/09/06 09:18:57;;;;;;;3.43;2.87;;;32.20;99.90;;;;;;4953258;28;20937;-72
2022/09/06 09:21:24;;;;;;;9.30;3.47;;;32.00;99.90;;;;;;4966455;28;20467;-73
2022/09/06 09:23:55;;;;;;;3.43;2.60;;;32.00;99.90;;;;;;4953110;28;20416;-73
2022/09/06 09:26:25;;;;;;;4.33;3.20;;;31.50;99.90;;;;;;4953019;28;20801;-73
2022/09/06 09:29:06;;;;;;;5.63;2.33;;;31.50;99.90;;;;;;4953066;28;20428;-72
2022/09/06 09:31:39;;;;;;;6.17;2.97;;;31.00;99.90;;;;;;4952764;28;20456;-73
2022/09/06 09:34:09;;;;;;;5.60;2.80;;;30.70;99.90;;;;;;4951468;28;20436;-72
2022/09/06 09:36:35;;;;;;;5.77;2.60;;;30.60;99.90;;;;;;4952796;28;20456;-73
2022/09/06 09:39:10;;;;;;;5.13;2.83;;;31.00;99.90;;;;;;4952576;28;20768;-72
2022/09/06 09:41:39;;;;;;;6.47;3.10;;;31.70;99.90;;;;;;4952960;28;20876;-72
2022/09/06 09:44:09;;;;;;;4.03;2.67;;;32.10;99.90;;;;;;4963456;28;20427;-72
2022/09/06 09:46:36;;;;;;;13.30;2.60;;;32.70;99.90;;;;;;4972012;28;20502;-72
2022/09/06 09:49:27;;;;;;;3.37;2.27;;;33.20;99.90;;;;;;4986698;28;20439;-73
2022/09/06 09:52:08;;;;;;;7.63;3.00;;;33.40;99.90;;;;;;4972080;28;20517;-73
2022/09/06 09:54:37;;;;;;;4.50;2.53;;;33.60;99.90;;;;;;4972031;28;20506;-72
2022/09/06 09:57:07;;;;;;;10.63;3.03;;;33.50;99.90;;;;;;4975506;28;20438;-72
2022/09/06 09:59:45;;;;;;;2.30;2.03;;;33.70;99.90;;;;;;4975173;28;20469;-72
2022/09/06 10:02:26;;;;;;;6.47;2.40;;;33.60;99.90;;;;;;4975305;28;20558;-72
2022/09/06 10:05:03;;;;;;;3.33;2.53;;;33.20;99.90;;;;;;4975286;28;20430;-71
2022/09/06 10:07:31;;;;;;;7.27;2.63;;;33.10;99.90;;;;;;4975416;28;20419;-72
2022/09/06 10:10:05;;;;;;;5.50;2.00;;;33.60;99.90;;;;;;4974922;28;20419;-73
2022/09/06 10:12:31;;;;;;;19.77;2.90;;;33.40;99.90;;;;;;4975264;28;20451;-73
2022/09/06 10:14:58;;;;;;;3.17;2.03;;;34.10;99.90;;;;;;4974897;28;20514;-73
2022/09/06 10:17:32;;;;;;;6.43;3.00;;;34.60;99.90;;;;;;4975086;28;20435;-72
2022/09/06 10:20:06;;;;;;;11.73;2.70;;;35.00;99.90;;;;;;4974838;28;20450;-73
2022/09/06 10:22:53;;;;;;;3.50;2.50;;;35.70;99.90;;;;;;4962930;28;20531;-72
2022/09/06 10:25:32;;;;;;;9.00;2.57;;;36.00;99.90;;;;;;4955529;28;20431;-72
2022/09/06 10:27:58;;;;;;;4.77;2.33;;;35.90;99.90;;;;;;4955642;28;20435;-73
2022/09/06 10:30:23;;;;;;;4.07;2.80;;;35.40;99.90;;;;;;4955643;28;20416;-72
2022/09/06 10:33:38;;;;;;;5.60;2.53;;;34.70;99.90;;;;;;4955318;28;20269;-73
2022/09/06 10:36:03;;;;;;;3.90;2.77;;;33.40;99.90;;;;;;4955207;28;20345;-72
2022/09/06 10:38:49;;;;;;;4.97;2.47;;;33.00;99.90;;;;;;4954468;28;20519;-72
2022/09/06 10:41:41;;;;;;;7.90;2.67;;;32.40;99.90;;;;;;4955465;28;20224;-72
2022/09/06 10:44:28;;;;;;;5.23;2.80;;;31.70;99.90;;;;;;4955454;28;20924;-72
2022/09/06 10:47:09;;;;;;;5.67;2.20;;;31.50;99.90;;;;;;4955268;28;20835;-72
2022/09/06 10:49:37;;;;;;;4.90;3.07;;;31.30;99.90;;;;;;4955605;28;20921;-73
2022/09/06 10:52:08;;;;;;;10.17;3.17;;;31.00;99.90;;;;;;4955267;28;20511;-73
2022/09/06 10:54:39;;;;;;;7.53;2.90;;;30.90;99.90;;;;;;4971403;28;20415;-73
2022/09/06 10:57:17;;;;;;;6.07;3.07;;;30.90;99.90;;;;;;4965256;28;20409;-72
2022/09/06 10:59:50;;;;;;;6.90;2.83;;;30.80;99.90;;;;;;4955633;28;20456;-73
2022/09/06 11:02:53;;;;;;;5.03;3.43;;;30.70;99.90;;;;;;4955815;28;20436;-73
2022/09/06 11:05:24;;;;;;;5.40;2.43;;;30.60;99.90;;;;;;4954551;28;20439;-72
2022/09/06 11:08:00;;;;;;;3.73;2.97;;;30.50;99.90;;;;;;4954872;28;20424;-72
2022/09/06 11:10:36;;;;;;;9.13;3.33;;;30.30;99.90;;;;;;4955089;28;20426;-72
2022/09/06 11:13:10;;;;;;;3.17;2.73;;;30.20;99.90;;;;;;4954874;28;20420;-72
2022/09/06 11:15:52;;;;;;;6.00;3.47;;;30.00;99.90;;;;;;4954848;28;20479;-72
2022/09/06 11:18:24;;;;;;;9.97;2.80;;;30.20;99.90;;;;;;4954628;28;20845;-72
2022/09/06 11:21:15;;;;;;;3.60;2.63;;;30.30;99.90;;;;;;4967614;28;20482;-72
2022/09/06 11:23:59;;;;;;;7.00;3.00;;;30.40;99.90;;;;;;4965046;28;20425;-72
2022/09/06 11:26:29;;;;;;;6.13;3.57;;;30.70;99.90;;;;;;4954665;28;20491;-72
2022/09/06 11:29:07;;;;;;;5.13;3.33;;;30.90;99.90;;;;;;4954270;28;20432;-70
2022/09/06 11:31:46;;;;;;;9.70;4.10;;;31.10;99.90;;;;;;4955606;28;20475;-71
2022/09/06 11:34:24;;;;;;;6.20;2.73;;;31.30;99.90;;;;;;4973582;28;20522;-72
2022/09/06 11:37:07;;;;;;;4.43;3.23;;;31.00;99.90;;;;;;4975010;28;20415;-72
2022/09/06 11:39:37;;;;;;;9.57;2.93;;;31.40;99.90;;;;;;4974657;28;20478;-73
2022/09/06 11:42:25;;;;;;;7.10;3.20;;;31.60;99.90;;;;;;4973982;28;20940;-71
2022/09/06 11:44:53;;;;;;;7.23;3.37;;;31.90;99.90;;;;;;4972790;28;20525;-73
2022/09/06 11:47:46;;;;;;;2.90;2.63;;;31.80;99.90;;;;;;4974425;28;20423;-72
2022/09/06 11:50:23;;;;;;;7.30;3.17;;;31.30;99.90;;;;;;4973267;28;20758;-71
2022/09/06 11:53:01;;;;;;;4.93;3.23;;;31.00;99.90;;;;;;4973483;28;20438;-72
2022/09/06 11:55:45;;;;;;;8.43;3.10;;;30.70;99.90;;;;;;4973179;28;20423;-72
2022/09/06 11:58:16;;;;;;;4.00;3.40;;;30.80;99.90;;;;;;4973432;28;20879;-72
2022/09/06 12:00:43;;;;;;;7.60;3.50;;;30.80;99.90;;;;;;4973091;28;21036;-74
2022/09/06 12:03:30;;;;;;;4.17;3.77;;;30.60;99.90;;;;;;4973170;28;20441;-71
2022/09/06 12:06:24;;;;;;;3.97;3.60;;;30.40;99.90;;;;;;4972711;28;20439;-72
2022/09/06 12:08:52;;;;;;;7.50;3.87;;;30.10;99.90;;;;;;4973353;28;20456;-72
2022/09/06 12:11:37;;;;;;;5.20;3.97;;;29.70;99.90;;;;;;4972816;28;20494;-72
2022/09/06 12:14:25;;;;;;;7.70;4.40;;;29.60;99.90;;;;;;4972945;28;20427;-71
2022/09/06 12:16:56;;;;;;;5.03;3.87;;;29.40;99.90;;;;;;4972617;28;20506;-72
2022/09/06 12:19:42;;;;;;;10.67;3.70;;;29.10;99.90;;;;;;4972486;28;20477;-72
2022/09/06 12:22:25;;;;;;;6.37;3.03;;;28.90;99.90;;;;;;4962046;28;20440;-73
2022/09/06 12:24:59;;;;;;;4.60;3.10;;;28.70;99.90;;;;;;4953496;28;20420;-71
2022/09/06 12:27:28;;;;;;;9.43;3.73;;;28.50;99.90;;;;;;4953702;28;20419;-72
2022/09/06 12:29:59;;;;;;;4.63;3.90;;;28.20;99.90;;;;;;4953641;28;20855;-72
2022/09/06 12:32:30;;;;;;;4.20;3.17;;;27.90;99.90;;;;;;4953588;28;20448;-72
2022/09/06 12:34:57;;;;;;;8.70;4.23;;;27.60;99.90;;;;;;4953494;28;20439;-72
2022/09/06 12:37:31;;;;;;;4.27;3.70;;;27.20;99.90;;;;;;4953511;28;20428;-75
2022/09/06 12:39:58;;;;;;;11.53;4.17;;;26.90;99.90;;;;;;4953444;28;20459;-73
2022/09/06 12:42:24;;;;;;;5.23;4.10;;;26.60;99.90;;;;;;4953431;28;20444;-72
2022/09/06 12:44:52;;;;;;;9.87;3.67;;;26.30;99.90;;;;;;4953223;28;20420;-73
2022/09/06 12:47:27;;;;;;;6.90;3.90;;;26.10;99.90;;;;;;4953611;28;20459;-73
2022/09/06 12:50:09;;;;;;;7.30;3.47;;;26.00;99.90;;;;;;4951344;28;20517;-74
2022/09/06 12:52:58;;;;;;;5.33;4.23;;;25.80;99.90;;;;;;4966985;28;20838;-73
2022/09/06 12:55:26;;;;;;;8.30;4.23;;;25.70;99.90;;;;;;4965863;28;20453;-73
2022/09/06 12:57:57;;;;;;;6.03;4.20;;;25.60;99.90;;;;;;4964407;28;20522;-73
2022/09/06 13:00:25;;;;;;;9.13;4.50;;;25.50;99.90;;;;;;4967374;28;20479;-73
2022/09/06 13:03:07;;;;;;;5.47;3.83;;;25.50;99.90;;;;;;4969880;28;20519;-73
2022/09/06 13:05:37;;;;;;;4.80;4.30;;;25.40;99.90;;;;;;4971368;28;20475;-73
2022/09/06 13:08:03;;;;;;;9.17;4.13;;;25.30;99.90;;;;;;4971013;28;20530;-74
2022/09/06 13:10:29;;;;;;;10.70;4.83;;;25.20;99.90;;;;;;4971438;28;20440;-74
2022/09/06 13:12:57;;;;;;;8.30;4.13;;;25.10;99.90;;;;;;4971011;28;20204;-73
2022/09/06 13:15:26;;;;;;;10.83;4.10;;;25.00;99.90;;;;;;4960610;28;20181;-75
2022/09/06 13:17:53;;;;;;;7.67;4.37;;;24.90;99.90;;;;;;4952972;28;20419;-75
2022/09/06 13:20:27;;;;;;;6.90;4.60;;;24.80;99.90;;;;;;4962310;28;20470;-74
2022/09/06 13:23:06;;;;;;;9.10;4.70;;;24.70;99.90;;;;;;4970652;28;20443;-74
2022/09/06 13:25:32;;;;;;;4.53;4.20;;;24.70;99.90;;;;;;4970344;28;20423;-74
2022/09/06 13:27:58;;;;;;;4.83;3.87;;;24.70;99.90;;;;;;4970428;28;20421;-75
2022/09/06 13:30:44;;;;;;;5.73;3.90;;;24.70;99.90;;;;;;4974145;28;20188;-74
2022/09/06 13:33:23;;;;;;;10.77;4.67;;;24.70;99.90;;;;;;4974620;28;20482;-74
2022/09/06 13:36:02;;;;;;;5.87;4.50;;;24.60;99.90;;;;;;4974156;28;20430;-74
2022/09/06 13:38:37;;;;;;;5.93;4.40;;;24.60;99.90;;;;;;4975929;28;21159;-74
2022/09/06 13:41:05;;;;;;;7.50;5.27;;;24.60;99.90;;;;;;4975796;28;20486;-74
2022/09/06 13:43:38;;;;;;;8.13;4.73;;;24.50;99.90;;;;;;4976287;28;20793;-72
2022/09/06 13:46:06;;;;;;;8.73;5.57;;;24.40;99.90;;;;;;4975587;28;20430;-74
2022/09/06 13:48:32;;;;;;;10.10;4.43;;;24.50;99.90;;;;;;4975953;28;20478;-74
2022/09/06 13:50:58;;;;;;;6.00;4.80;;;24.40;99.90;;;;;;4973377;28;20451;-75
2022/09/06 13:53:24;;;;;;;14.80;5.20;;;24.40;99.90;;;;;;4956491;28;20576;-74
2022/09/06 13:55:51;;;;;;;6.23;4.00;;;24.30;99.90;;;;;;4956101;28;20439;-75
2022/09/06 13:58:16;;;;;;;10.90;4.33;;;24.30;99.90;;;;;;4956213;28;20192;-74
2022/09/06 14:00:42;;;;;;;8.53;4.63;;;24.20;99.90;;;;;;4956098;28;20471;-75
2022/09/06 14:03:21;;;;;;;7.07;4.07;;;24.20;99.90;;;;;;4955980;28;20184;-74
2022/09/06 14:05:47;;;;;;;5.20;3.87;;;24.10;99.90;;;;;;4956116;28;20189;-74
2022/09/06 14:08:12;;;;;;;7.53;4.33;;;24.10;99.90;;;;;;4956008;28;20582;-74
2022/09/06 14:10:37;;;;;;;10.13;4.70;;;24.10;99.90;;;;;;4954782;28;20568;-71
2022/09/06 14:13:04;;;;;;;9.07;5.23;;;24.00;99.90;;;;;;4955842;28;20284;-74
2022/09/06 14:15:29;;;;;;;6.83;4.20;;;24.00;99.90;;;;;;4955825;28;20661;-74
2022/09/06 14:17:55;;;;;;;9.03;4.30;;;23.80;99.90;;;;;;4955727;28;20431;-73
2022/09/06 14:20:20;;;;;;;6.67;4.43;;;23.70;99.90;;;;;;4965526;28;20215;-74
2022/09/06 14:22:46;;;;;;;9.00;4.70;;;23.70;99.90;;;;;;4958096;28;20220;-74
2022/09/06 14:25:12;;;;;;;8.27;4.50;;;23.70;99.90;;;;;;4955522;28;20181;-74
2022/09/06 14:27:37;;;;;;;6.60;5.20;;;23.60;99.90;;;;;;4955841;28;20208;-75
2022/09/06 14:30:03;;;;;;;16.07;5.00;;;23.60;99.90;;;;;;4955383;28;20329;-73
2022/09/06 14:32:29;;;;;;;9.20;4.87;;;23.50;99.90;;;;;;4955421;28;20701;-74